Flight Track Log - Related Links

Times and Time Zones

All times are in EDT time to prevent confusion due to time zone crossing. See the GJS3649 flight status page for this flight to view local times or setup timezone preferences in your user account.


Time Position Orientation Groundspeed Altitude Reporting Facility
EDT Latitude Longitude Course Direction KTS MPH feet Rate Location/Type
Sat 03:35:59 PM 41.9167 -87.9000 214° Southwest 209 241 3,100  Level Chicago TRACON
Sat 03:36:35 PM 41.8719 -87.9022 182° South 224 258 4,200 2,082 Climbing Chicago Center
Sat 03:37:37 PM 41.7950 -87.8872 172° South 260 299 6,500 2,468 Climbing Chicago Center
Sat 03:38:00 PM 41.7708 -87.3194 173° South  Level Estimated
Sat 03:38:39 PM 41.7144 -87.8706 171° South 289 333 9,300  Level Chicago Center
Sat 03:39:00 PM 41.7177 -87.1732 180° South  Level Estimated
Sat 03:39:40 PM 41.6325 -87.8564 173° South 295 339 11,800  Level Chicago Center
Sat 03:40:00 PM 41.6643 -87.0273 143° Southeast  Level Estimated
Sat 03:40:42 PM 41.5514 -87.8103 157° South 324 373 13,800  Level Chicago Center
Sat 03:41:00 PM 41.5683 -87.1124 214° Southwest  Level FlightAware Approximate
Sat 03:41:44 PM 41.4631 -87.7431 150° Southeast 357 411 15,100  Level Chicago Center
Sat 03:42:45 PM 41.3678 -87.6714 151° Southeast 383 441 16,600 1,512 Climbing Chicago Center
Sat 03:43:47 PM 41.2692 -87.5969 150° Southeast 399 459 18,200 1,707 Climbing Chicago Center
Sat 03:44:48 PM 41.1481 -87.5056 150° Southeast 414 476 20,100 1,659 Climbing Chicago Center
Sat 03:45:50 PM 41.0450 -87.4286 151° Southeast 422 486 21,600 1,306 Climbing Chicago Center
Sat 03:46:52 PM 40.9392 -87.3514 151° Southeast 432 497 22,800 1,171 Climbing Chicago Center
Sat 03:47:53 PM 40.8325 -87.2717 151° Southeast 439 505 24,000 1,171 Climbing Chicago Center
Sat 03:48:55 PM 40.7236 -87.1919 151° Southeast 444 511 25,200 1,171 Climbing Chicago Center
Sat 03:49:56 PM 40.6153 -87.1111 150° Southeast 448 516 26,400 1,220 Climbing Chicago Center
Sat 03:50:58 PM 40.5025 -87.0203 149° Southeast 452 520 27,700 1,113 Climbing Chicago Center
Sat 03:52:00 PM 40.4019 -86.9214 143° Southeast 453 521 28,700 927 Climbing Chicago Center
Sat 03:53:01 PM 40.2986 -86.8211 143° Southeast 459 528 29,600 878 Climbing Chicago Center
Sat 03:54:03 PM 40.1942 -86.7239 145° Southeast 462 532 30,500 849 Climbing Chicago Center
Sat 03:54:47 PM 40.1097 -86.6444 144° Southeast 462 532 31,100 629 Climbing Indianapolis Center
Sat 03:55:48 PM 40.0033 -86.5464 145° Southeast 467 537 31,600 492 Climbing Indianapolis Center
Sat 03:56:49 PM 39.8967 -86.4458 144° Southeast 475 547 32,100 488 Climbing Indianapolis Center
Sat 03:57:51 PM 39.7750 -86.3319 144° Southeast 480 552 32,600 537 Climbing Indianapolis Center
Sat 03:58:52 PM 39.6764 -86.2119 137° Southeast 487 560 33,200 683 Climbing Indianapolis Center
Sat 03:59:54 PM 39.6014 -86.0717 125° Southeast 495 570 34,000 732 Climbing Indianapolis Center
Sat 04:00:55 PM 39.5250 -85.9269 124° Southeast 490 564 34,700 639 Climbing Indianapolis Center
Sat 04:01:56 PM 39.4333 -85.7539 124° Southeast 487 560 35,300 537 Climbing Indianapolis Center
Sat 04:02:58 PM 39.3564 -85.6103 125° Southeast 489 563 35,800 488 Climbing Indianapolis Center
Sat 04:03:59 PM 39.2803 -85.4661 124° Southeast 488 562 36,300 488 Climbing Indianapolis Center
Sat 04:05:01 PM 39.2019 -85.3222 125° Southeast 491 565 36,800 439 Climbing Indianapolis Center
Sat 04:06:02 PM 39.1247 -85.1786 125° Southeast 490 564 37,200 393 Climbing Indianapolis Center
Sat 04:07:03 PM 39.0786 -85.0100 109° East 505 581 37,600 439 Climbing Indianapolis Center
Sat 04:08:05 PM 39.0361 -84.8083 105° East 512 589 38,100 439 Climbing Indianapolis Center
Sat 04:09:06 PM 38.9986 -84.6328 105° East 508 585 38,500 341 Climbing Indianapolis Center
Sat 04:10:08 PM 38.9625 -84.4586 105° East 503 579 38,800 244 Climbing Indianapolis Center
Sat 04:11:09 PM 38.9239 -84.2836 106° East 506 582 39,000 49 Climbing Indianapolis Center
Sat 04:12:10 PM 38.8858 -84.1067 105° East 510 587 38,900 -49 Descending Indianapolis Center
Sat 04:13:12 PM 38.8461 -83.9283 106° East 516 594 38,900  Level Indianapolis Center
Sat 04:14:13 PM 38.8075 -83.7486 105° East 520 598 38,900  Level Indianapolis Center
Sat 04:15:14 PM 38.7675 -83.5678 106° East 523 602 38,900 49 Level Indianapolis Center
Sat 04:16:16 PM 38.7267 -83.3889 106° East 522 601 39,000  Climbing Indianapolis Center
Sat 04:17:17 PM 38.6864 -83.2083 106° East 524 603 38,900  Descending Indianapolis Center
Sat 04:18:18 PM 38.6397 -83.0064 106° East 526 605 39,000 49 Climbing Indianapolis Center
Sat 04:19:20 PM 38.5992 -82.8242 106° East 529 609 39,000  Level Indianapolis Center
Sat 04:20:21 PM 38.5561 -82.6431 107° East 531 611 39,000 -344 Level Indianapolis Center
Sat 04:21:22 PM 38.5119 -82.4519 106° East 532 612 38,300 -683 Descending Indianapolis Center
Sat 04:22:24 PM 38.4681 -82.2683 107° East 541 623 37,600 -683 Descending Indianapolis Center
Sat 04:23:25 PM 38.4253 -82.0853 107° East 542 624 36,900 -934 Descending Indianapolis Center
Sat 04:24:26 PM 38.3819 -81.9042 107° East 540 621 35,700 -1,220 Descending Indianapolis Center
Sat 04:25:28 PM 38.3414 -81.7194 106° East 546 628 34,400 -1,268 Descending Indianapolis Center
Sat 04:26:29 PM 38.3108 -81.5244 101° East 569 655 33,100 -689 Descending Indianapolis Center
Sat 04:27:30 PM 38.2725 -81.2900 102° East 572 658 33,000 -49 Descending Indianapolis Center
Sat 04:28:32 PM 38.2422 -81.0986 101° East 559 643 33,000  Level Indianapolis Center
Sat 04:29:22 PM 38.2161 -80.9542 103° East 571 657 33,000  Level Washington Center
Sat 04:30:24 PM 38.1850 -80.7592 101° East 566 651 33,000 -97 Level Washington Center
Sat 04:31:26 PM 38.1503 -80.5428 101° East 573 659 32,800 -706 Descending Washington Center
Sat 04:32:23 PM 38.1164 -80.3478 102° East 565 650 31,600 -1,220 Descending Washington Center
Sat 04:33:24 PM 38.0844 -80.1558 102° East 560 644 30,400 -1,412 Descending Washington Center
Sat 04:34:22 PM 38.0519 -79.9639 102° East 554 638 28,800 -1,881 Descending Washington Center
Sat 04:35:22 PM 38.0261 -79.8069 102° East 527 606 26,700 -1,884 Descending Washington Center
Sat 04:36:23 PM 38.0003 -79.6500 102° East 490 564 25,000 -836 Descending Washington Center
Sat 04:37:24 PM 37.9722 -79.4931 103° East 462 532 25,000 -344 Level Washington Center
Sat 04:38:25 PM 37.9439 -79.3308 102° East 457 526 24,300 -807 Descending Washington Center
Sat 04:39:23 PM 37.9133 -79.1742 104° East 457 526 23,400 -958 Descending Washington Center
Sat 04:40:24 PM 37.8764 -79.0144 106° East 457 526 22,400 -1,091 Descending Washington Center
Sat 04:41:24 PM 37.8267 -78.8439 110° East 468 539 21,200 -712 Descending Washington Center
Sat 04:42:22 PM 37.7828 -78.6950 110° East 468 539 21,000 -101 Descending Washington Center
Sat 04:43:23 PM 37.7428 -78.5489 109° East 452 520 21,000  Level Washington Center
Sat 04:44:22 PM 37.7003 -78.4056 111° Southeast 447 514 21,000 -50 Level Washington Center
Sat 04:45:22 PM 37.6617 -78.2728 110° East 440 506 20,900  Descending Washington Center
Sat 04:46:23 PM 37.6147 -78.1269 112° Southeast 440 506 21,000 49 Climbing Washington Center
Sat 04:47:24 PM 37.5739 -77.9817 109° East 440 506 21,000 -3,025 Level Washington Center
Sat 04:48:22 PM 37.5183 -77.8383 116° Southeast 440 506 15,000 -1,261 Descending Washington Center
Sat 04:49:23 PM 37.4683 -77.7086 116° Southeast 434 499 18,500 942 Climbing Washington Center
Sat 04:50:23 PM 37.4164 -77.5739 116° Southeast 427 491 16,900 -1,537 Descending Washington Center
Sat 04:51:24 PM 37.3683 -77.4472 115° Southeast 415 478 15,400 -1,373 Descending Washington Center
Sat 04:52:21 PM 37.3222 -77.3208 115° Southeast 405 466 14,200 -1,277 Descending Washington Center
Sat 04:52:58 PM 37.2900 -77.2392 116° Southeast 377 434 13,400 -984 Descending Washington Center
Sat 04:53:22 PM 37.2761 -77.2022 115° Southeast 385 443 13,200 -400 Descending Washington Center
Sat 04:53:58 PM 37.2458 -77.1208 115° Southeast 366 421 13,000 -197 Descending Washington Center
Sat 04:54:23 PM 37.2275 -77.0733 116° Southeast 366 421 13,000  Level Washington Center
Sat 04:55:00 PM 37.2014 -77.0050 116° Southeast 373 429 13,000  Level Washington Center
Sat 04:55:24 PM 37.1811 -76.9553 117° Southeast 366 421 13,000 -448 Level Washington Center
Sat 04:56:07 PM 37.1528 -76.8764 114° Southeast 381 438 12,500 -931 Descending Washington Center
Sat 04:56:22 PM 37.1383 -76.8397 116° Southeast 366 421 12,100 -1,180 Descending Washington Center
Sat 04:57:08 PM 37.1161 -76.7692 112° Southeast 323 372 11,300 -1,082 Descending Washington Center
Sat 04:57:23 PM 37.1042 -76.7350 114° Southeast 349 402 11,000 -1,520 Descending Washington Center
Sat 04:58:23 PM 37.0672 -76.6408 116° Southeast 316 364 9,400 -1,686 Descending Washington Center
Sat 04:59:24 PM 37.0306 -76.5494 117° Southeast 303 349 7,600 -1,582 Descending Washington Center
Sat 05:00:13 PM 36.9997 -76.4736 117° Southeast 294 338 6,500 -1,412 Descending Washington Center
Sat 05:01:23 PM 36.9589 -76.3664 115° Southeast 296 341 4,800 -1,559 Descending Washington Center
Sat 05:02:20 PM 36.9761 -76.2731 77° East 291 335 3,200 -1,062 Descending Washington Center
Sat 05:03:16 PM 37.0036 -76.2006 65° Northeast 244 281 2,800 -672 Descending Washington Center
Sat 05:04:16 PM 37.0394 -76.1383 54° Northeast 215 247 1,900 -595 Descending Washington Center
Sat 05:05:17 PM 37.0019 -76.1197 158° South 155 178 1,600 -295 Descending Washington Center

Login

Don't have an account? Register now (free) for customized features, flight alerts, and more!